Timestamp Temperature Pressure Humidity
2021-12-01 23:04:31 2.2 1006.61 85.74
2021-12-01 23:34:31 2.03 1006.96 86.1
2021-12-02 00:04:31 1.87 1007.28 86.74
2021-12-02 00:34:31 1.74 1007.59 87.16
2021-12-02 01:04:32 1.62 1007.89 87.52
2021-12-02 01:34:32 1.53 1008.21 87.8
2021-12-02 02:04:32 1.44 1008.51 87.72
2021-12-02 02:34:32 1.33 1008.8 87.67
2021-12-02 03:04:33 1.22 1009.09 87.17
2021-12-02 03:34:33 1.1 1009.39 87.28
2021-12-02 04:04:33 0.96 1009.69 86.88
2021-12-02 04:34:33 0.83 1009.97 86.64
2021-12-02 05:04:34 0.69 1010.27 86.65
2021-12-02 05:34:34 0.56 1010.57 86.6
2021-12-02 06:04:34 0.42 1010.85 86.56
2021-12-02 06:34:34 0.29 1011.14 86.39
2021-12-02 07:04:35 0.15 1011.43 86.03
2021-12-02 07:34:35 0.02 1011.71 86.08
2021-12-02 08:04:35 -0.12 1012 85.63
2021-12-02 08:34:36 -0.25 1012.28 85.51
2021-12-02 09:04:36 -0.38 1012.56 85.93
2021-12-02 09:34:36 -0.49 1012.84 86.17
2021-12-02 10:04:36 -0.59 1013.09 86.29
2021-12-02 10:34:37 -0.68 1013.33 86.71
2021-12-02 11:04:37 -0.75 1013.54 86.94
2021-12-02 11:34:37 -0.78 1013.74 87.08
2021-12-02 12:04:38 -0.8 1013.93 87.73
2021-12-02 12:34:38 -0.8 1014.08 87.93
2021-12-02 13:04:38 -0.77 1014.19 87.76
2021-12-02 13:34:39 -0.74 1014.29 87.61
2021-12-02 14:04:39 -0.7 1014.38 87.74
2021-12-02 14:34:39 -0.66 1014.43 87.57
2021-12-02 15:04:39 -0.62 1014.44 87.79
2021-12-02 15:34:40 -0.59 1014.45 87.78
2021-12-02 16:04:40 -0.56 1014.43 88.26
2021-12-02 16:34:40 -0.54 1014.42 88.36
2021-12-02 17:04:41 -0.51 1014.4 88.6
2021-12-02 17:34:41 -0.5 1014.34 88.86
2021-12-02 18:04:44 -0.48 1014.22 88.9
2021-12-02 18:34:45 -0.47 1014.09 88.37
2021-12-02 19:04:46 -0.45 1013.93 88.89
2021-12-02 19:34:46 -0.42 1013.76 88.13
2021-12-02 20:04:47 -0.38 1013.56 88.13
2021-12-02 20:34:47 -0.36 1013.33 88.68
2021-12-02 21:04:47 -0.33 1013.07 89.15
2021-12-02 21:34:48 -0.3 1012.76 89.33
2021-12-02 22:04:48 -0.27 1012.39 89.47
2021-12-02 22:34:48 -0.24 1012.03 89.84